createdAt,value
2022-12-04T00:01:16.813Z,3.22
2022-12-04T00:03:44.637Z,3.75
2022-12-04T00:06:14.916Z,3.92
2022-12-04T00:08:43.950Z,3.53
2022-12-04T00:11:15.074Z,3.85
2022-12-04T00:13:43.367Z,3.55
2022-12-04T00:16:14.402Z,3.00
2022-12-04T00:18:42.785Z,2.65
2022-12-04T00:21:13.424Z,3.30
2022-12-04T00:23:42.287Z,2.83
2022-12-04T00:26:18.443Z,3.45
2022-12-04T00:28:46.619Z,2.63
2022-12-04T00:31:19.863Z,3.03
2022-12-04T00:33:47.967Z,3.50
2022-12-04T00:36:17.407Z,3.38
2022-12-04T00:38:45.307Z,3.58
2022-12-04T00:41:14.722Z,3.78
2022-12-04T00:43:45.713Z,4.15
2022-12-04T00:46:14.252Z,3.85
2022-12-04T00:48:42.824Z,4.25
2022-12-04T00:51:12.979Z,3.72
2022-12-04T00:53:41.574Z,3.55
2022-12-04T00:56:11.700Z,4.03
2022-12-04T00:58:39.520Z,4.35
2022-12-04T01:01:11.201Z,3.65
2022-12-04T01:03:39.886Z,4.38
2022-12-04T01:06:08.475Z,2.33
2022-12-04T01:08:36.416Z,2.22
2022-12-04T01:11:07.137Z,3.88
2022-12-04T01:13:34.990Z,4.20
2022-12-04T01:16:02.960Z,4.43
2022-12-04T01:18:32.149Z,3.80
2022-12-04T01:20:59.952Z,4.18
2022-12-04T01:23:27.770Z,4.20
2022-12-04T01:25:57.571Z,5.63
2022-12-04T01:28:26.354Z,4.72
2022-12-04T01:31:05.414Z,5.13
2022-12-04T01:33:36.856Z,4.47
2022-12-04T01:36:06.919Z,4.75
2022-12-04T01:38:35.343Z,4.97
2022-12-04T01:41:03.614Z,4.93
2022-12-04T01:43:34.162Z,4.32
2022-12-04T01:46:03.135Z,3.13
2022-12-04T01:48:33.362Z,3.75
2022-12-04T01:51:08.365Z,4.35
2022-12-04T01:53:39.362Z,4.50
2022-12-04T01:56:08.177Z,3.92
2022-12-04T01:58:40.221Z,4.00
2022-12-04T02:01:09.799Z,4.50
2022-12-04T02:03:39.008Z,4.95
2022-12-04T02:06:08.533Z,4.80
2022-12-04T02:08:37.862Z,3.65
2022-12-04T02:11:17.257Z,3.90
2022-12-04T02:13:56.496Z,4.78
2022-12-04T02:16:31.263Z,4.05
2022-12-04T02:19:08.895Z,4.45
2022-12-04T02:21:41.591Z,4.95
2022-12-04T02:24:33.914Z,4.32
2022-12-04T02:27:05.784Z,5.28
2022-12-04T02:29:43.152Z,5.25
2022-12-04T02:32:18.666Z,4.07
2022-12-04T02:34:52.853Z,4.20
2022-12-04T02:37:28.751Z,5.13
2022-12-04T02:40:04.010Z,4.20
2022-12-04T02:42:39.240Z,4.93
2022-12-04T02:45:12.903Z,4.80
2022-12-04T02:47:43.781Z,4.30
2022-12-04T02:50:14.940Z,4.72
2022-12-04T02:52:47.982Z,4.20
2022-12-04T02:55:21.317Z,4.60
2022-12-04T02:57:54.399Z,5.05
2022-12-04T03:00:24.092Z,3.83
2022-12-04T03:02:55.912Z,4.82
2022-12-04T03:05:28.341Z,4.95
2022-12-04T03:07:59.998Z,4.72
2022-12-04T03:10:33.584Z,4.70
2022-12-04T03:13:07.557Z,4.63
2022-12-04T03:15:41.183Z,4.65
2022-12-04T03:18:16.032Z,5.65
2022-12-04T03:20:45.791Z,4.28
2022-12-04T03:23:19.714Z,4.78
2022-12-04T03:25:54.837Z,5.13
2022-12-04T03:28:30.126Z,4.38
2022-12-04T03:31:05.079Z,3.85
2022-12-04T03:33:39.685Z,4.75
2022-12-04T03:36:13.190Z,3.38
2022-12-04T03:38:48.344Z,3.88
2022-12-04T03:41:23.852Z,4.35
2022-12-04T03:43:57.982Z,4.05
2022-12-04T03:46:30.913Z,3.72
2022-12-04T03:49:06.454Z,3.95
2022-12-04T03:51:37.791Z,4.07
2022-12-04T03:54:10.206Z,5.80
2022-12-04T03:56:42.720Z,4.22
2022-12-04T03:59:17.164Z,5.05
2022-12-04T04:01:49.819Z,2.97
2022-12-04T04:04:23.220Z,3.30
2022-12-04T04:06:56.442Z,3.63
2022-12-04T04:09:27.499Z,4.10
2022-12-04T04:12:01.693Z,4.22
2022-12-04T04:14:53.462Z,4.00
2022-12-04T04:17:46.580Z,3.35
2022-12-04T04:20:35.802Z,4.53
2022-12-04T04:23:24.300Z,3.80
2022-12-04T04:25:54.225Z,4.43
2022-12-04T04:28:33.438Z,3.97
2022-12-04T04:31:09.710Z,4.28
2022-12-04T04:33:48.701Z,4.40
2022-12-04T04:36:24.870Z,3.97
2022-12-04T04:39:01.915Z,3.45
2022-12-04T04:41:39.023Z,4.55
2022-12-04T04:44:15.850Z,4.90
2022-12-04T04:46:49.263Z,4.82
2022-12-04T04:49:20.456Z,4.10
2022-12-04T04:51:48.911Z,4.10
2022-12-04T04:54:19.000Z,3.58
2022-12-04T04:56:48.347Z,4.47
2022-12-04T04:59:16.412Z,4.15
2022-12-04T05:01:47.348Z,3.95
2022-12-04T05:04:15.538Z,3.47
2022-12-04T05:06:44.745Z,4.03
2022-12-04T05:09:12.590Z,4.30
2022-12-04T05:11:40.427Z,3.90
2022-12-04T05:14:09.523Z,4.68
2022-12-04T05:16:37.534Z,5.47
2022-12-04T05:19:22.843Z,4.50
2022-12-04T05:21:52.017Z,3.72
2022-12-04T05:24:19.827Z,5.05
2022-12-04T05:26:47.636Z,4.47
2022-12-04T05:29:15.440Z,4.60
2022-12-04T05:31:43.293Z,5.15
2022-12-04T05:34:11.196Z,4.07
2022-12-04T05:36:39.040Z,4.82
2022-12-04T05:39:08.225Z,4.45
2022-12-04T05:41:36.015Z,4.53
2022-12-04T05:44:04.154Z,4.15
2022-12-04T05:46:31.955Z,6.05
2022-12-04T05:48:59.787Z,4.45
2022-12-04T05:51:27.642Z,5.78
2022-12-04T05:53:55.430Z,4.65
2022-12-04T05:56:24.604Z,2.78
2022-12-04T05:58:52.573Z,4.53
2022-12-04T06:01:23.114Z,4.68
2022-12-04T06:03:51.285Z,4.72
2022-12-04T06:06:22.422Z,4.65
2022-12-04T06:08:51.062Z,4.07
2022-12-04T06:11:21.023Z,4.60
2022-12-04T06:13:50.654Z,4.10
2022-12-04T06:16:20.487Z,3.50
2022-12-04T06:18:50.331Z,4.30
2022-12-04T06:21:18.160Z,4.47
2022-12-04T06:23:46.075Z,4.25
2022-12-04T06:26:14.198Z,4.18
2022-12-04T06:28:42.140Z,3.90
2022-12-04T06:31:14.198Z,3.70
2022-12-04T06:33:42.805Z,3.50
2022-12-04T06:36:13.886Z,3.53
2022-12-04T06:38:42.730Z,3.83
2022-12-04T06:41:13.236Z,3.60
2022-12-04T06:43:41.344Z,4.30
2022-12-04T06:46:11.954Z,4.00
2022-12-04T06:48:40.605Z,4.47
2022-12-04T06:51:11.059Z,4.65
2022-12-04T06:53:39.346Z,4.50
2022-12-04T06:56:09.929Z,4.82
2022-12-04T06:58:38.097Z,5.60
2022-12-04T07:01:08.752Z,4.55
2022-12-04T07:03:38.690Z,4.35
2022-12-04T07:06:14.349Z,4.82
2022-12-04T07:08:42.921Z,4.63
2022-12-04T07:11:10.997Z,4.75
2022-12-04T07:13:38.864Z,4.65
2022-12-04T07:16:09.351Z,4.70
2022-12-04T07:18:39.007Z,4.05
2022-12-04T07:21:08.025Z,4.22
2022-12-04T07:23:36.318Z,3.03
2022-12-04T07:26:08.099Z,3.28
2022-12-04T07:28:36.346Z,3.53
2022-12-04T07:31:06.517Z,3.00
2022-12-04T07:33:34.476Z,2.50
2022-12-04T07:36:05.849Z,2.75
2022-12-04T07:38:34.867Z,2.42
2022-12-04T07:41:04.456Z,2.50
2022-12-04T07:43:32.955Z,2.42
2022-12-04T07:46:06.588Z,2.50
2022-12-04T07:48:34.467Z,2.30
2022-12-04T07:51:09.490Z,2.65
2022-12-04T07:53:38.412Z,2.50
2022-12-04T07:56:07.805Z,2.60
2022-12-04T07:58:35.965Z,2.42
2022-12-04T08:01:08.690Z,3.00
2022-12-04T08:03:37.072Z,3.03
2022-12-04T08:06:08.923Z,3.05
2022-12-04T08:08:37.959Z,3.05
2022-12-04T08:11:07.460Z,3.60
2022-12-04T08:13:35.377Z,4.10
2022-12-04T08:16:04.049Z,4.78
2022-12-04T08:18:32.001Z,3.25
2022-12-04T08:21:05.516Z,3.10
2022-12-04T08:23:35.184Z,3.92
2022-12-04T08:26:04.003Z,4.05
2022-12-04T08:28:33.545Z,3.75
2022-12-04T08:31:04.715Z,4.15
2022-12-04T08:33:32.767Z,3.70
2022-12-04T08:36:00.799Z,4.43
2022-12-04T08:38:28.744Z,3.95
2022-12-04T08:41:01.124Z,3.40
2022-12-04T08:43:29.109Z,3.20
2022-12-04T08:45:58.330Z,3.20
2022-12-04T08:48:26.402Z,2.95
2022-12-04T08:50:54.501Z,2.25
2022-12-04T08:53:22.918Z,2.10
2022-12-04T08:55:50.910Z,2.92
2022-12-04T08:58:20.367Z,2.28
2022-12-04T09:00:48.212Z,2.42
2022-12-04T09:03:18.256Z,2.35
2022-12-04T09:05:46.937Z,2.10
2022-12-04T09:08:15.573Z,2.63
2022-12-04T09:10:45.442Z,2.35
2022-12-04T09:13:13.371Z,2.05
2022-12-04T09:15:42.744Z,2.00
2022-12-04T09:18:11.189Z,2.45
2022-12-04T09:20:40.300Z,2.22
2022-12-04T09:23:08.132Z,2.80
2022-12-04T09:25:37.438Z,2.63
2022-12-04T09:28:05.680Z,2.05
2022-12-04T09:30:33.501Z,2.38
2022-12-04T09:33:02.741Z,2.75
2022-12-04T09:35:30.892Z,2.63
2022-12-04T09:37:59.259Z,3.05
2022-12-04T09:40:36.945Z,3.60
2022-12-04T09:43:19.257Z,2.85
2022-12-04T09:45:49.796Z,3.33
2022-12-04T09:48:21.526Z,3.38
2022-12-04T09:50:50.695Z,3.58
2022-12-04T09:53:22.014Z,2.88
2022-12-04T09:55:55.982Z,3.72
2022-12-04T09:58:29.523Z,2.80
2022-12-04T10:00:58.963Z,3.45
2022-12-04T10:03:31.469Z,2.90
2022-12-04T10:06:04.541Z,3.33
2022-12-04T10:08:36.982Z,3.33
2022-12-04T10:11:13.002Z,3.58
2022-12-04T10:14:04.022Z,3.10
2022-12-04T10:16:42.226Z,3.28
2022-12-04T10:19:19.691Z,2.85
2022-12-04T10:21:58.757Z,3.20
2022-12-04T10:24:39.339Z,3.05
2022-12-04T10:27:13.266Z,2.90
2022-12-04T10:29:43.843Z,2.03
2022-12-04T10:32:19.858Z,2.17
2022-12-04T10:34:51.463Z,2.10
2022-12-04T10:37:19.285Z,2.40
2022-12-04T10:39:54.213Z,2.45
2022-12-04T10:42:30.386Z,2.97
2022-12-04T10:44:58.344Z,3.03
2022-12-04T10:47:26.697Z,2.55
2022-12-04T10:50:01.164Z,2.28
2022-12-04T10:52:29.009Z,2.13
2022-12-04T10:55:00.216Z,2.58
2022-12-04T10:57:37.497Z,2.85
2022-12-04T11:00:24.047Z,2.10
2022-12-04T11:02:53.001Z,2.35
2022-12-04T11:05:32.048Z,2.00
2022-12-04T11:08:02.324Z,2.25
2022-12-04T11:10:34.983Z,2.20
2022-12-04T11:13:05.467Z,2.22
2022-12-04T11:15:36.528Z,2.13
2022-12-04T11:18:16.509Z,2.22
2022-12-04T11:20:52.052Z,1.92
2022-12-04T11:23:20.085Z,2.10
2022-12-04T11:25:50.097Z,2.28
2022-12-04T11:28:41.229Z,1.95
2022-12-04T11:31:10.541Z,1.95
2022-12-04T11:33:41.395Z,2.67
2022-12-04T11:36:21.872Z,2.08
2022-12-04T11:38:50.849Z,2.40
2022-12-04T11:41:28.339Z,2.67
2022-12-04T11:44:00.334Z,2.42
2022-12-04T11:46:31.485Z,2.92
2022-12-04T11:48:59.476Z,2.22
2022-12-04T11:51:38.861Z,2.53
2022-12-04T11:54:17.685Z,2.50
2022-12-04T11:56:51.242Z,2.50
2022-12-04T11:59:35.725Z,2.63
2022-12-04T12:02:21.944Z,2.60
2022-12-04T12:05:24.440Z,2.20
2022-12-04T12:08:03.057Z,2.20
2022-12-04T12:10:42.981Z,2.38
2022-12-04T12:13:23.267Z,1.60
2022-12-04T12:15:59.663Z,2.72
2022-12-04T12:18:47.015Z,2.75
2022-12-04T12:21:23.017Z,2.80
2022-12-04T12:24:04.283Z,2.60
2022-12-04T12:26:42.123Z,2.85
2022-12-04T12:29:26.515Z,2.13
2022-12-04T12:32:15.979Z,2.80
2022-12-04T12:34:46.605Z,2.92
2022-12-04T12:37:23.662Z,2.45
2022-12-04T12:40:01.053Z,2.90
2022-12-04T12:42:34.677Z,2.95
2022-12-04T12:45:07.612Z,2.95
2022-12-04T12:47:41.329Z,2.92
2022-12-04T12:50:17.554Z,2.40
2022-12-04T12:52:52.309Z,3.30
2022-12-04T12:55:25.059Z,2.88
2022-12-04T12:58:01.757Z,2.88
2022-12-04T13:00:33.249Z,2.90
2022-12-04T13:03:06.640Z,2.25
2022-12-04T13:05:38.875Z,2.92
2022-12-04T13:08:18.143Z,2.33
2022-12-04T13:10:51.236Z,2.95
2022-12-04T13:13:25.993Z,3.03
2022-12-04T13:15:58.084Z,3.50
2022-12-04T13:18:30.249Z,2.63
2022-12-04T13:21:02.005Z,3.28
2022-12-04T13:23:48.387Z,3.65
2022-12-04T13:26:31.676Z,2.67
2022-12-04T13:29:09.932Z,2.40
2022-12-04T13:31:49.312Z,2.75
2022-12-04T13:34:34.852Z,2.75
2022-12-04T13:37:16.355Z,2.40
2022-12-04T13:40:27.623Z,3.17
2022-12-04T13:43:18.736Z,2.88
2022-12-04T13:45:48.034Z,2.20
2022-12-04T13:48:15.923Z,2.67
2022-12-04T13:50:43.772Z,2.72
2022-12-04T13:53:33.214Z,2.50
2022-12-04T13:56:06.162Z,2.50
2022-12-04T13:58:37.646Z,2.90
2022-12-04T14:01:13.306Z,2.95
2022-12-04T14:03:49.180Z,3.20
2022-12-04T14:06:26.423Z,2.72
2022-12-04T14:09:00.367Z,2.78
2022-12-04T14:11:30.347Z,3.13
2022-12-04T14:14:06.406Z,2.95
2022-12-04T14:16:39.971Z,3.33
2022-12-04T14:19:09.105Z,3.83
2022-12-04T14:21:41.216Z,3.13
2022-12-04T14:24:17.792Z,4.00
2022-12-04T14:27:10.647Z,3.00
2022-12-04T14:29:48.888Z,3.30
2022-12-04T14:32:21.527Z,3.15
2022-12-04T14:34:50.983Z,3.15
2022-12-04T14:37:24.809Z,4.25
2022-12-04T14:39:53.606Z,4.07
2022-12-04T14:42:26.531Z,3.10
2022-12-04T14:44:58.504Z,3.38
2022-12-04T14:47:47.987Z,4.10
2022-12-04T14:50:30.045Z,3.63
2022-12-04T14:53:04.430Z,3.75
2022-12-04T14:55:38.162Z,3.13
2022-12-04T14:58:34.700Z,3.88
2022-12-04T15:01:07.072Z,3.28
2022-12-04T15:03:37.894Z,3.97
2022-12-04T15:06:08.193Z,3.67
2022-12-04T15:08:36.697Z,4.18
2022-12-04T15:11:25.166Z,4.03
2022-12-04T15:13:53.028Z,4.18
2022-12-04T15:16:23.533Z,3.70
2022-12-04T15:18:55.934Z,3.55
2022-12-04T15:21:25.985Z,4.55
2022-12-04T15:23:53.848Z,4.20
2022-12-04T15:26:26.829Z,4.00
2022-12-04T15:28:58.425Z,4.05
2022-12-04T15:31:31.714Z,4.25
2022-12-04T15:34:03.559Z,4.78
2022-12-04T15:36:47.289Z,4.75
2022-12-04T15:39:19.157Z,4.53
2022-12-04T15:41:46.950Z,4.70
2022-12-04T15:44:28.507Z,4.40
2022-12-04T15:47:00.180Z,4.65
2022-12-04T15:49:29.864Z,5.10
2022-12-04T15:52:07.470Z,5.45
2022-12-04T15:54:36.496Z,5.05
2022-12-04T15:57:06.999Z,4.60
2022-12-04T15:59:36.218Z,6.00
2022-12-04T16:02:10.072Z,5.05
2022-12-04T16:04:44.008Z,5.63
2022-12-04T16:07:22.171Z,5.15
2022-12-04T16:10:01.105Z,4.10
2022-12-04T16:12:33.725Z,5.28
2022-12-04T16:15:01.522Z,5.35
2022-12-04T16:17:32.799Z,5.97
2022-12-04T16:20:01.399Z,5.78
2022-12-04T16:22:31.392Z,5.07
2022-12-04T16:24:59.488Z,4.80
2022-12-04T16:27:27.608Z,5.32
2022-12-04T16:29:55.466Z,5.47
2022-12-04T16:32:28.879Z,4.65
2022-12-04T16:34:58.330Z,5.78
2022-12-04T16:37:26.343Z,5.15
2022-12-04T16:39:54.369Z,4.90
2022-12-04T16:42:25.341Z,5.28
2022-12-04T16:44:53.799Z,5.25
2022-12-04T16:47:22.449Z,5.47
2022-12-04T16:49:52.072Z,5.90
2022-12-04T16:52:21.674Z,4.30
2022-12-04T16:54:49.554Z,5.68
2022-12-04T16:57:17.406Z,4.85
2022-12-04T16:59:45.284Z,4.63
2022-12-04T17:02:18.521Z,4.80
2022-12-04T17:04:46.360Z,4.82
2022-12-04T17:07:14.231Z,4.85
2022-12-04T17:09:43.535Z,4.68
2022-12-04T17:12:11.354Z,5.47
2022-12-04T17:14:39.717Z,5.00
2022-12-04T17:17:07.676Z,5.30
2022-12-04T17:19:35.471Z,5.80
2022-12-04T17:22:03.219Z,5.35
2022-12-04T17:24:30.999Z,5.53
2022-12-04T17:27:01.198Z,4.85
2022-12-04T17:29:28.993Z,5.78
2022-12-04T17:31:56.859Z,5.63
2022-12-04T17:34:24.752Z,5.13
2022-12-04T17:36:52.619Z,5.47
2022-12-04T17:39:20.437Z,4.70
2022-12-04T17:41:48.344Z,5.20
2022-12-04T17:44:17.523Z,5.15
2022-12-04T17:46:45.519Z,5.00
2022-12-04T17:49:13.413Z,4.70
2022-12-04T17:51:41.247Z,5.85
2022-12-04T17:54:11.695Z,4.80
2022-12-04T17:56:44.578Z,5.32
2022-12-04T17:59:16.919Z,4.40
2022-12-04T18:01:44.891Z,5.35
2022-12-04T18:04:12.680Z,5.63
2022-12-04T18:06:42.843Z,5.95
2022-12-04T18:09:12.758Z,5.82
2022-12-04T18:11:42.859Z,5.32
2022-12-04T18:14:13.039Z,5.15
2022-12-04T18:16:45.557Z,5.43
2022-12-04T18:19:14.725Z,5.57
2022-12-04T18:21:42.592Z,5.60
2022-12-04T18:24:10.700Z,5.90
2022-12-04T18:26:40.977Z,5.30
2022-12-04T18:29:11.699Z,6.03
2022-12-04T18:31:39.939Z,6.30
2022-12-04T18:34:09.700Z,5.45
2022-12-04T18:36:39.421Z,4.43
2022-12-04T18:39:09.290Z,4.63
2022-12-04T18:41:37.724Z,5.30
2022-12-04T18:44:05.739Z,5.32
2022-12-04T18:46:34.084Z,4.70
2022-12-04T18:49:02.231Z,4.80
2022-12-04T18:51:33.435Z,5.00
2022-12-04T18:54:03.404Z,5.00
2022-12-04T18:56:34.801Z,5.70
2022-12-04T18:59:05.324Z,5.00
2022-12-04T19:01:33.321Z,4.07
2022-12-04T19:04:03.663Z,4.82
2022-12-04T19:06:35.606Z,4.75
2022-12-04T19:09:07.081Z,4.65
2022-12-04T19:11:36.049Z,4.40
2022-12-04T19:14:12.539Z,4.60
2022-12-04T19:16:44.808Z,4.90
2022-12-04T19:19:13.617Z,5.20
2022-12-04T19:21:42.966Z,4.38
2022-12-04T19:24:11.061Z,4.90
2022-12-04T19:26:39.239Z,5.07
2022-12-04T19:29:08.082Z,5.00
2022-12-04T19:31:38.453Z,4.93
2022-12-04T19:34:07.245Z,4.32
2022-12-04T19:36:36.168Z,4.43
2022-12-04T19:39:06.373Z,4.43
2022-12-04T19:41:37.014Z,4.75
2022-12-04T19:44:20.083Z,5.13
2022-12-04T19:46:53.557Z,4.25
2022-12-04T19:49:21.388Z,4.88
2022-12-04T19:51:49.729Z,5.03
2022-12-04T19:54:20.693Z,5.03
2022-12-04T19:56:52.471Z,4.82
2022-12-04T19:59:21.098Z,6.10
2022-12-04T20:01:49.246Z,5.45
2022-12-04T20:04:17.167Z,4.78
2022-12-04T20:06:46.859Z,4.40
2022-12-04T20:09:16.334Z,4.90
2022-12-04T20:11:45.659Z,5.35
2022-12-04T20:14:13.532Z,4.43
2022-12-04T20:16:42.071Z,4.15
2022-12-04T20:19:14.211Z,4.63
2022-12-04T20:21:42.083Z,4.72
2022-12-04T20:24:13.644Z,5.03
2022-12-04T20:26:43.314Z,4.53
2022-12-04T20:29:14.675Z,4.88
2022-12-04T20:31:44.514Z,3.90
2022-12-04T20:34:14.402Z,4.57
2022-12-04T20:36:44.472Z,4.47
2022-12-04T20:39:13.873Z,5.47
2022-12-04T20:41:42.526Z,3.75
2022-12-04T20:44:15.620Z,4.30
2022-12-04T20:46:44.539Z,4.40
2022-12-04T20:49:20.804Z,4.65
2022-12-04T20:51:49.962Z,3.78
2022-12-04T20:54:20.352Z,4.25
2022-12-04T20:56:49.350Z,3.85
2022-12-04T20:59:20.433Z,4.07
2022-12-04T21:01:49.068Z,4.25
2022-12-04T21:04:18.629Z,4.18
2022-12-04T21:06:47.652Z,4.60
2022-12-04T21:09:17.843Z,3.97
2022-12-04T21:11:47.476Z,4.00
2022-12-04T21:14:35.003Z,4.30
2022-12-04T21:17:06.782Z,4.50
2022-12-04T21:19:34.701Z,3.95
2022-12-04T21:22:02.672Z,3.72
2022-12-04T21:24:36.207Z,3.63
2022-12-04T21:27:04.053Z,3.97
2022-12-04T21:29:32.053Z,4.47
2022-12-04T21:31:59.861Z,4.22
2022-12-04T21:34:29.104Z,4.35
2022-12-04T21:36:57.092Z,4.20
2022-12-04T21:39:25.700Z,4.07
2022-12-04T21:42:11.170Z,4.35
2022-12-04T21:44:39.111Z,4.38
2022-12-04T21:47:06.943Z,3.75
2022-12-04T21:49:36.142Z,3.78
2022-12-04T21:52:04.001Z,3.88
2022-12-04T21:54:32.053Z,3.63
2022-12-04T21:56:59.927Z,3.30
2022-12-04T21:59:27.932Z,4.05
2022-12-04T22:01:56.184Z,3.45
2022-12-04T22:04:24.448Z,3.90
2022-12-04T22:06:53.644Z,4.43
2022-12-04T22:09:21.528Z,3.45
2022-12-04T22:11:49.365Z,4.70
2022-12-04T22:14:17.224Z,3.60
2022-12-04T22:16:45.174Z,2.60
2022-12-04T22:19:13.889Z,3.55
2022-12-04T22:21:42.450Z,4.30
2022-12-04T22:24:11.759Z,3.67
2022-12-04T22:26:40.139Z,3.42
2022-12-04T22:29:34.068Z,4.15
2022-12-04T22:31:56.226Z,3.45
2022-12-04T22:34:24.192Z,3.45
2022-12-04T22:36:52.066Z,3.90
2022-12-04T22:39:21.256Z,3.17
2022-12-04T22:41:49.176Z,3.85
2022-12-04T22:44:17.042Z,3.80
2022-12-04T22:46:44.877Z,3.65
2022-12-04T22:49:12.749Z,4.03
2022-12-04T22:51:40.537Z,4.03
2022-12-04T22:54:08.382Z,4.38
2022-12-04T22:56:37.589Z,3.47
2022-12-04T22:59:05.442Z,3.40
2022-12-04T23:01:34.841Z,3.65
2022-12-04T23:04:04.141Z,3.95
2022-12-04T23:06:34.016Z,4.15
2022-12-04T23:09:04.518Z,3.92
2022-12-04T23:11:32.522Z,3.45
2022-12-04T23:14:03.903Z,3.83
2022-12-04T23:16:33.706Z,4.30
2022-12-04T23:19:01.543Z,4.05
2022-12-04T23:21:30.002Z,4.22
2022-12-04T23:23:58.780Z,3.80
2022-12-04T23:26:31.866Z,3.88
2022-12-04T23:29:02.874Z,3.47
2022-12-04T23:31:31.391Z,4.10
2022-12-04T23:34:00.175Z,3.58
2022-12-04T23:36:28.321Z,3.22
2022-12-04T23:38:56.692Z,3.85
2022-12-04T23:41:26.481Z,2.83
2022-12-04T23:43:55.576Z,4.00
2022-12-04T23:46:27.370Z,3.55
2022-12-04T23:48:55.834Z,3.08
2022-12-04T23:51:24.131Z,3.65
2022-12-04T23:53:52.512Z,3.70
2022-12-04T23:56:22.452Z,3.20
2022-12-04T23:58:51.911Z,3.30
